Time;durP1;ratioP1;P1;durP2;ratioP2;P2;SDS_P1;SDS_P2;PMS_P1;PMS_P2;Temp;Humidity;BMP_temperature;BMP_pressure;BME280_temperature;BME280_humidity;BME280_pressure;Samples;Min_cycle;Max_cycle;Signal;HPM_P1;HPM_P2
2021/11/30 00:00:32;;;;;;;17.73;9.70;;;1.00;99.90;;;;;;5032221;28;20041;-70
2021/11/30 00:03:38;;;;;;;15.20;10.05;;;1.00;99.90;;;;;;5032129;28;20041;-70
2021/11/30 00:06:44;;;;;;;6.65;4.47;;;0.90;99.90;;;;;;5032056;28;20504;-70
2021/11/30 00:12:54;;;;;;;8.25;4.05;;;0.90;99.90;;;;;;5031950;28;20476;-70
2021/11/30 00:15:58;;;;;;;7.13;4.00;;;1.00;99.90;;;;;;5031982;28;20037;-70
2021/11/30 00:19:02;;;;;;;7.63;4.07;;;1.00;99.90;;;;;;5031337;28;20041;-70
2021/11/30 00:22:08;;;;;;;9.25;5.35;;;1.00;99.90;;;;;;5031957;28;20480;-69
2021/11/30 00:25:12;;;;;;;5.35;3.25;;;1.00;99.90;;;;;;5030827;28;20037;-70
2021/11/30 00:28:16;;;;;;;6.28;3.13;;;0.90;99.90;;;;;;5031362;28;20041;-69
2021/11/30 00:31:20;;;;;;;7.07;3.95;;;0.90;99.90;;;;;;5031020;28;20029;-70
2021/11/30 00:34:24;;;;;;;6.32;4.00;;;0.80;99.90;;;;;;5031792;28;20053;-70
2021/11/30 00:37:27;;;;;;;5.60;3.42;;;0.70;99.90;;;;;;5033651;28;20041;-70
2021/11/30 00:40:33;;;;;;;5.10;3.40;;;0.70;99.90;;;;;;5035794;28;20049;-70
2021/11/30 00:43:39;;;;;;;7.20;3.80;;;0.60;99.90;;;;;;5035776;28;20469;-70
2021/11/30 00:46:44;;;;;;;6.68;3.45;;;0.60;99.90;;;;;;5035794;28;20045;-70
2021/11/30 00:49:49;;;;;;;5.38;3.85;;;0.70;99.90;;;;;;5034854;28;20042;-70
2021/11/30 00:52:55;;;;;;;6.53;3.92;;;0.70;99.90;;;;;;5035688;28;20038;-70
2021/11/30 00:55:59;;;;;;;6.05;3.00;;;0.70;99.90;;;;;;5035572;28;20045;-70
2021/11/30 00:59:03;;;;;;;4.18;3.00;;;0.80;99.90;;;;;;5035022;28;20045;-70
2021/11/30 01:02:07;;;;;;;5.25;2.90;;;0.90;99.90;;;;;;5035441;28;20045;-70
2021/11/30 01:05:14;;;;;;;5.93;3.00;;;1.00;99.90;;;;;;5035236;28;20042;-70
2021/11/30 01:08:18;;;;;;;3.78;2.42;;;1.00;99.90;;;;;;5034841;28;20041;-70
2021/11/30 01:11:23;;;;;;;4.45;2.67;;;1.10;99.90;;;;;;5035238;28;20041;-70
2021/11/30 01:14:26;;;;;;;5.47;3.13;;;1.00;99.90;;;;;;5035091;28;20472;-70
2021/11/30 01:17:30;;;;;;;5.03;3.00;;;0.80;99.90;;;;;;5035014;28;20053;-70
2021/11/30 01:20:36;;;;;;;5.28;3.00;;;0.70;99.90;;;;;;5035169;28;20037;-70
2021/11/30 01:23:40;;;;;;;3.88;2.58;;;0.70;99.90;;;;;;5035205;28;20480;-70
2021/11/30 01:26:44;;;;;;;9.15;4.88;;;0.70;99.90;;;;;;5033845;28;20041;-70
2021/11/30 01:29:48;;;;;;;7.82;4.35;;;0.70;99.90;;;;;;5034221;28;20485;-70
2021/11/30 01:32:52;;;;;;;9.15;4.75;;;0.40;99.90;;;;;;5034880;28;20045;-70
2021/11/30 01:35:56;;;;;;;6.75;4.30;;;0.30;99.90;;;;;;5034701;28;20369;-70
2021/11/30 01:39:02;;;;;;;7.47;4.35;;;0.20;99.90;;;;;;5034222;28;20033;-70
2021/11/30 01:42:07;;;;;;;25.98;10.68;;;0.20;99.90;;;;;;5034848;28;20472;-70
2021/11/30 01:45:19;;;;;;;7.97;4.72;;;0.30;99.90;;;;;;5034415;28;20052;-70
2021/11/30 01:51:28;;;;;;;5.80;3.55;;;0.40;99.90;;;;;;5034392;28;20038;-70
2021/11/30 01:54:33;;;;;;;8.30;3.90;;;0.40;99.90;;;;;;5034337;28;20045;-70
2021/11/30 01:57:37;;;;;;;6.95;4.30;;;0.40;99.90;;;;;;5034671;28;20365;-70
2021/11/30 02:00:42;;;;;;;6.03;3.53;;;0.40;99.90;;;;;;5034442;28;20065;-70
2021/11/30 02:03:46;;;;;;;8.23;3.25;;;0.40;99.90;;;;;;5034356;28;20037;-70
2021/11/30 02:06:51;;;;;;;7.13;2.47;;;0.30;99.90;;;;;;5034425;28;20041;-70
2021/11/30 02:09:54;;;;;;;6.80;2.67;;;0.40;99.90;;;;;;5033658;28;20041;-70
2021/11/30 02:12:59;;;;;;;6.40;3.45;;;0.50;99.90;;;;;;5034170;28;20038;-70
2021/11/30 02:16:07;;;;;;;7.53;3.45;;;0.30;99.90;;;;;;5033902;28;20041;-70
2021/11/30 02:19:11;;;;;;;6.30;3.72;;;0.30;99.90;;;;;;5032417;28;20041;-70
2021/11/30 02:22:16;;;;;;;6.82;3.78;;;0.00;99.90;;;;;;5033796;28;20385;-70
2021/11/30 02:25:21;;;;;;;6.53;4.32;;;-0.10;99.90;;;;;;5033610;28;20041;-70
2021/11/30 02:28:25;;;;;;;8.23;4.40;;;-0.30;99.90;;;;;;5033394;28;20475;-70
2021/11/30 02:31:33;;;;;;;10.00;4.53;;;-0.40;99.90;;;;;;5033837;28;20053;-70
2021/11/30 02:34:37;;;;;;;6.88;4.03;;;-0.60;99.90;;;;;;5033793;28;20044;-70
2021/11/30 02:37:50;;;;;;;6.03;3.50;;;-0.70;99.90;;;;;;5033381;28;20038;-70
2021/11/30 02:40:54;;;;;;;6.18;3.65;;;-0.70;99.90;;;;;;5033846;28;20037;-70
2021/11/30 02:43:58;;;;;;;6.65;3.72;;;-0.70;99.90;;;;;;5033623;28;20038;-71
2021/11/30 02:47:11;;;;;;;6.15;3.45;;;-0.70;99.90;;;;;;5032671;28;20068;-71
2021/11/30 02:50:15;;;;;;;26.95;12.60;;;-0.80;99.90;;;;;;5032876;28;20038;-71
2021/11/30 02:53:21;;;;;;;41.88;20.23;;;-0.80;99.90;;;;;;5033527;28;20045;-71
2021/11/30 02:56:27;;;;;;;7.63;4.55;;;-0.80;99.90;;;;;;5033564;28;20052;-71
2021/11/30 02:59:34;;;;;;;9.60;3.95;;;-0.80;99.90;;;;;;5032608;28;20048;-71
2021/11/30 03:02:38;;;;;;;7.47;4.30;;;-0.80;99.90;;;;;;5032941;28;20040;-71
2021/11/30 03:05:42;;;;;;;10.75;5.68;;;-0.70;99.90;;;;;;5032913;28;20050;-71
2021/11/30 03:08:46;;;;;;;6.70;4.45;;;-0.70;99.90;;;;;;5032359;28;20045;-71
2021/11/30 03:11:52;;;;;;;10.35;5.53;;;-0.60;99.90;;;;;;5033200;28;20064;-71
2021/11/30 03:14:56;;;;;;;7.70;4.90;;;-0.70;99.90;;;;;;5033084;28;20044;-71
2021/11/30 03:18:00;;;;;;;7.70;4.95;;;-0.70;99.90;;;;;;5032815;28;20037;-71
2021/11/30 03:21:05;;;;;;;8.38;4.93;;;-0.70;99.90;;;;;;5032974;28;20052;-72
2021/11/30 03:24:09;;;;;;;13.32;4.40;;;-0.80;99.90;;;;;;5032783;28;20044;-71
2021/11/30 03:27:13;;;;;;;7.93;3.92;;;-0.80;99.90;;;;;;5032734;28;20036;-71
2021/11/30 03:30:22;;;;;;;9.30;4.97;;;-0.80;99.90;;;;;;5031784;28;20033;-71
2021/11/30 03:36:51;;;;;;;7.55;3.80;;;-0.80;99.90;;;;;;5032725;28;20042;-71
2021/11/30 03:39:57;;;;;;;8.55;3.97;;;-0.80;99.90;;;;;;5032013;28;20491;-71
2021/11/30 03:43:00;;;;;;;5.40;3.13;;;-0.70;99.90;;;;;;5032585;28;20034;-71
2021/11/30 03:46:04;;;;;;;4.18;2.65;;;-0.80;99.90;;;;;;5032424;28;20041;-71
2021/11/30 03:49:10;;;;;;;5.05;3.28;;;-0.80;99.90;;;;;;5031748;28;20033;-71
2021/11/30 03:52:14;;;;;;;5.63;3.10;;;-0.80;99.90;;;;;;5032428;28;20037;-72
2021/11/30 03:55:18;;;;;;;4.75;3.17;;;-0.90;99.90;;;;;;5032406;28;20048;-71
2021/11/30 03:58:22;;;;;;;7.90;2.90;;;-0.80;99.90;;;;;;5031664;28;20056;-71
2021/11/30 04:01:26;;;;;;;5.05;3.13;;;-0.90;99.90;;;;;;5032127;28;20056;-72
2021/11/30 04:04:35;;;;;;;6.22;2.85;;;-0.90;99.90;;;;;;5032098;28;20401;-72
2021/11/30 04:07:39;;;;;;;5.20;3.08;;;-0.90;99.90;;;;;;5032194;28;20492;-71
2021/11/30 04:10:43;;;;;;;6.60;2.85;;;-0.90;99.90;;;;;;5031866;28;20034;-71
2021/11/30 04:13:47;;;;;;;6.22;3.40;;;-1.00;99.90;;;;;;5030696;28;20037;-71
2021/11/30 04:16:52;;;;;;;4.05;2.72;;;-0.90;99.90;;;;;;5031719;28;20044;-72
2021/11/30 04:19:56;;;;;;;6.13;3.30;;;-0.90;99.90;;;;;;5031347;28;20048;-72
2021/11/30 04:23:02;;;;;;;4.43;3.13;;;-0.90;99.90;;;;;;5032044;28;20054;-72
2021/11/30 04:26:06;;;;;;;3.88;2.80;;;-1.00;99.90;;;;;;5031871;28;20041;-72
2021/11/30 04:29:10;;;;;;;4.10;2.83;;;-1.10;99.90;;;;;;5031042;28;20037;-72
2021/11/30 04:32:14;;;;;;;5.95;3.28;;;-1.20;99.90;;;;;;5031899;28;20059;-72
2021/11/30 04:35:18;;;;;;;4.35;2.90;;;-1.20;99.90;;;;;;5031921;28;20060;-72
2021/11/30 04:38:22;;;;;;;4.47;3.20;;;-1.30;99.90;;;;;;5031140;28;20041;-71
2021/11/30 04:41:26;;;;;;;4.80;2.90;;;-1.30;99.90;;;;;;5042312;28;20037;-72
2021/11/30 04:44:33;;;;;;;5.80;3.70;;;-1.30;99.90;;;;;;5031663;28;20065;-71
2021/11/30 04:47:40;;;;;;;5.90;3.20;;;-1.40;99.90;;;;;;5031714;28;20037;-72
2021/11/30 04:50:47;;;;;;;6.10;3.72;;;-1.40;99.90;;;;;;5031794;28;20030;-71
2021/11/30 04:53:52;;;;;;;6.68;3.47;;;-1.30;99.90;;;;;;5031711;28;20388;-72
2021/11/30 04:56:56;;;;;;;8.85;3.63;;;-1.40;99.90;;;;;;5031667;28;20039;-72
2021/11/30 05:00:00;;;;;;;5.68;3.67;;;-1.40;99.90;;;;;;5031107;28;20051;-71
2021/11/30 05:03:08;;;;;;;5.25;2.95;;;-1.50;99.90;;;;;;5031639;28;20041;-71
2021/11/30 05:06:12;;;;;;;6.10;3.22;;;-1.50;99.90;;;;;;5031702;28;20049;-71
2021/11/30 05:09:16;;;;;;;6.05;3.20;;;-1.50;99.90;;;;;;5030956;28;20041;-71
2021/11/30 05:12:20;;;;;;;4.10;2.80;;;-1.40;99.90;;;;;;5031487;28;20044;-71
2021/11/30 05:15:24;;;;;;;5.35;3.03;;;-1.40;99.90;;;;;;5031584;28;20388;-71
2021/11/30 05:18:28;;;;;;;5.20;3.60;;;-1.40;99.90;;;;;;5030738;28;20520;-71
2021/11/30 05:21:32;;;;;;;5.32;2.70;;;-1.40;99.90;;;;;;5031361;28;20435;-71
2021/11/30 05:24:36;;;;;;;5.57;3.50;;;-1.30;99.90;;;;;;5033053;28;20052;-71
2021/11/30 05:27:41;;;;;;;6.43;3.53;;;-1.40;99.90;;;;;;5035051;28;20044;-71
2021/11/30 05:30:45;;;;;;;6.15;3.10;;;-1.30;99.90;;;;;;5031702;28;20049;-71
2021/11/30 05:33:49;;;;;;;7.40;3.53;;;-1.40;99.90;;;;;;5035007;28;20034;-71
2021/11/30 05:36:53;;;;;;;15.52;3.70;;;-1.40;99.90;;;;;;5034917;28;20530;-71
2021/11/30 05:39:57;;;;;;;5.20;3.20;;;-1.40;99.90;;;;;;5034232;28;20044;-71
2021/11/30 05:43:01;;;;;;;6.18;3.50;;;-1.40;99.90;;;;;;5033538;28;20044;-71
2021/11/30 05:46:06;;;;;;;5.30;3.22;;;-1.40;99.90;;;;;;5034245;28;20052;-71
2021/11/30 05:49:11;;;;;;;4.85;2.85;;;-1.40;99.90;;;;;;5033685;28;20045;-70
2021/11/30 05:52:15;;;;;;;8.40;4.00;;;-1.30;99.90;;;;;;5034410;28;20388;-71
2021/11/30 05:55:19;;;;;;;10.90;3.90;;;-1.30;99.90;;;;;;5033189;28;20048;-71
2021/11/30 05:58:24;;;;;;;9.07;4.10;;;-1.30;99.90;;;;;;5033836;28;20052;-71
2021/11/30 06:01:32;;;;;;;5.05;3.70;;;-1.40;99.90;;;;;;5033138;28;20058;-71
2021/11/30 06:04:36;;;;;;;6.60;3.80;;;-1.40;99.90;;;;;;5034325;28;20042;-71
2021/11/30 06:07:41;;;;;;;5.85;3.65;;;-1.40;99.90;;;;;;5034287;28;20037;-71
2021/11/30 06:10:45;;;;;;;8.40;4.75;;;-1.40;99.90;;;;;;5034174;28;20033;-71
2021/11/30 06:13:50;;;;;;;9.15;5.07;;;-1.50;99.90;;;;;;5034068;28;20428;-71
2021/11/30 06:16:54;;;;;;;5.75;4.22;;;-1.50;99.90;;;;;;5034011;28;20040;-71
2021/11/30 06:19:58;;;;;;;8.85;5.00;;;-1.60;99.90;;;;;;5044228;28;20050;-71
2021/11/30 06:23:02;;;;;;;18.45;4.93;;;-1.60;99.90;;;;;;5033785;28;20037;-71
2021/11/30 06:26:10;;;;;;;14.50;5.90;;;-1.60;99.90;;;;;;5033675;28;20401;-71
2021/11/30 06:29:15;;;;;;;9.15;5.28;;;-1.60;99.90;;;;;;5033308;28;20074;-71
2021/11/30 06:32:20;;;;;;;13.20;6.35;;;-1.50;99.90;;;;;;5033900;28;20045;-71
2021/11/30 06:35:24;;;;;;;20.60;7.68;;;-1.50;99.90;;;;;;5033512;28;20044;-70
2021/11/30 06:38:29;;;;;;;12.10;6.28;;;-1.50;99.90;;;;;;5033130;28;20044;-70
2021/11/30 06:41:33;;;;;;;13.75;5.45;;;-1.50;99.90;;;;;;5033818;28;20051;-70
2021/11/30 06:44:37;;;;;;;20.52;7.00;;;-1.50;99.90;;;;;;5020928;28;20044;-71
2021/11/30 06:47:43;;;;;;;9.88;4.78;;;-1.40;99.90;;;;;;5033175;28;20041;-71
2021/11/30 06:50:48;;;;;;;9.48;4.85;;;-1.30;99.90;;;;;;5033161;28;20041;-71
2021/11/30 06:53:52;;;;;;;11.52;6.75;;;-1.20;99.90;;;;;;5033498;28;20151;-71
2021/11/30 06:56:56;;;;;;;22.70;10.00;;;-1.20;99.90;;;;;;5033362;28;20053;-70
2021/11/30 07:00:03;;;;;;;11.93;7.60;;;-0.20;99.90;;;;;;5032583;28;20032;-71
2021/11/30 07:03:07;;;;;;;8.45;5.32;;;2.70;99.90;;;;;;5033173;28;20048;-71
2021/11/30 07:09:21;;;;;;;25.15;11.57;;;8.30;99.90;;;;;;5031897;28;20471;-71
2021/11/30 07:15:35;;;;;;;9.55;5.30;;;8.90;99.90;;;;;;5032903;28;20054;-71
2021/11/30 07:18:40;;;;;;;9.20;4.72;;;6.90;99.90;;;;;;5032141;28;20046;-71
2021/11/30 07:21:44;;;;;;;5.97;3.90;;;7.20;99.90;;;;;;5032922;28;20050;-71
2021/11/30 07:24:48;;;;;;;6.55;4.25;;;9.30;99.90;;;;;;5032783;28;20045;-71
2021/11/30 07:27:53;;;;;;;7.10;3.65;;;11.60;98.70;;;;;;5032833;28;20041;-71
2021/11/30 07:31:04;;;;;;;6.95;4.15;;;12.00;97.80;;;;;;5032944;28;20045;-71
2021/11/30 07:34:10;;;;;;;6.28;3.70;;;13.20;96.60;;;;;;5023843;28;20047;-71
2021/11/30 07:37:14;;;;;;;5.80;3.78;;;14.50;94.10;;;;;;5027347;28;20041;-71
2021/11/30 07:40:18;;;;;;;6.32;3.83;;;15.60;92.50;;;;;;5013594;28;20037;-71
2021/11/30 07:43:23;;;;;;;5.85;3.50;;;17.20;90.40;;;;;;5023921;28;20052;-72
2021/11/30 07:46:27;;;;;;;7.38;4.00;;;17.40;85.40;;;;;;5027252;28;20041;-71
2021/11/30 07:49:31;;;;;;;5.35;3.95;;;18.20;80.30;;;;;;5031154;28;20380;-71
2021/11/30 07:52:42;;;;;;;6.05;3.95;;;17.70;80.00;;;;;;5023928;28;20041;-71
2021/11/30 07:55:46;;;;;;;;;;;18.60;78.00;;;;;;5023735;28;20054;-71
2021/11/30 07:58:50;;;;;;;5.43;4.28;;;18.70;77.50;;;;;;5028687;28;19916;-71
2021/11/30 08:01:54;;;;;;;6.15;4.20;;;16.80;78.20;;;;;;5026082;28;20054;-71
2021/11/30 08:04:58;;;;;;;4.25;3.63;;;18.40;76.90;;;;;;5022432;28;20041;-71
2021/11/30 08:08:02;;;;;;;5.10;3.53;;;18.30;74.20;;;;;;5023932;28;20048;-70
2021/11/30 08:11:07;;;;;;;7.05;3.72;;;17.80;78.00;;;;;;5012373;28;20048;-71
2021/11/30 08:14:15;;;;;;;3.60;3.17;;;18.90;76.80;;;;;;5011488;28;20045;-71
2021/11/30 08:17:20;;;;;;;9.52;6.50;;;20.50;72.90;;;;;;5012481;28;20041;-71
2021/11/30 08:20:24;;;;;;;22.83;13.73;;;21.50;73.40;;;;;;5011786;28;20045;-71
2021/11/30 08:23:28;;;;;;;19.73;13.38;;;22.60;70.90;;;;;;5012438;28;20041;-71
2021/11/30 08:26:33;;;;;;;10.77;7.93;;;23.50;69.30;;;;;;5011840;28;20041;-71
2021/11/30 08:29:44;;;;;;;4.00;3.10;;;24.60;66.80;;;;;;5011651;28;20049;-71
2021/11/30 08:32:48;;;;;;;4.53;2.95;;;24.80;64.80;;;;;;5012072;28;20057;-71
2021/11/30 08:35:52;;;;;;;5.65;3.40;;;24.50;60.00;;;;;;5012451;28;20057;-71
2021/11/30 08:38:56;;;;;;;6.32;4.20;;;20.70;64.00;;;;;;5011570;28;20052;-71
2021/11/30 08:42:03;;;;;;;6.00;3.97;;;19.10;66.60;;;;;;5012314;28;20053;-71
2021/11/30 08:45:10;;;;;;;4.15;3.25;;;21.70;64.40;;;;;;5037481;28;20052;-71
2021/11/30 08:48:15;;;;;;;4.82;4.20;;;22.50;63.30;;;;;;5023351;28;20045;-71
2021/11/30 08:51:19;;;;;;;5.90;4.45;;;19.00;65.60;;;;;;5039018;28;20502;-71
2021/11/30 08:54:24;;;;;;;7.22;4.50;;;14.20;72.50;;;;;;5028131;28;20380;-70
2021/11/30 08:57:29;;;;;;;5.43;4.60;;;15.40;75.90;;;;;;5012186;28;20049;-70
2021/11/30 09:00:34;;;;;;;6.15;4.97;;;16.80;73.00;;;;;;5015972;28;20056;-70
2021/11/30 09:03:39;;;;;;;7.28;5.53;;;15.80;73.70;;;;;;5015736;28;20048;-70
2021/11/30 09:06:43;;;;;;;12.05;7.40;;;13.80;74.10;;;;;;5015389;28;20404;-70
2021/11/30 09:09:48;;;;;;;11.10;6.80;;;16.90;73.40;;;;;;5015094;28;20037;-70
2021/11/30 09:12:51;;;;;;;10.38;6.20;;;17.40;71.10;;;;;;5015701;28;20080;-70
2021/11/30 09:15:56;;;;;;;7.15;5.65;;;14.30;74.10;;;;;;5015695;28;20495;-71
2021/11/30 09:19:00;;;;;;;8.45;6.00;;;14.40;75.90;;;;;;5014945;28;20057;-70
2021/11/30 09:22:04;;;;;;;9.25;6.20;;;13.90;76.20;;;;;;5015481;28;20065;-70
2021/11/30 09:25:09;;;;;;;11.40;5.38;;;14.50;78.60;;;;;;5031563;28;20044;-70
2021/11/30 09:28:13;;;;;;;6.57;5.28;;;16.20;75.30;;;;;;5051396;28;20052;-70
2021/11/30 09:31:17;;;;;;;9.25;5.60;;;20.70;71.70;;;;;;5023944;28;20489;-70
2021/11/30 09:34:24;;;;;;;6.15;4.35;;;23.50;66.80;;;;;;5036380;28;20045;-70
2021/11/30 09:37:29;;;;;;;7.60;5.45;;;23.90;64.10;;;;;;5017606;28;20041;-70
2021/11/30 09:40:33;;;;;;;5.75;4.47;;;21.40;65.30;;;;;;5031978;28;20045;-67
2021/11/30 09:43:38;;;;;;;7.70;5.82;;;20.10;66.90;;;;;;5014964;28;20049;-70
2021/11/30 09:46:42;;;;;;;7.88;5.43;;;16.80;69.20;;;;;;5031161;28;20048;-70
2021/11/30 09:49:47;;;;;;;7.15;5.40;;;17.30;69.70;;;;;;5022848;28;20057;-70
2021/11/30 09:52:54;;;;;;;6.85;5.32;;;18.70;69.40;;;;;;5020924;28;20056;-70
2021/11/30 09:55:58;;;;;;;7.20;5.47;;;18.60;69.60;;;;;;5034646;28;20041;-70
2021/11/30 09:59:03;;;;;;;7.72;4.85;;;18.70;69.30;;;;;;5014636;28;20060;-70
2021/11/30 10:02:08;;;;;;;5.72;4.22;;;20.90;70.60;;;;;;5030459;28;20045;-70
2021/11/30 10:05:11;;;;;;;7.30;4.97;;;23.90;64.40;;;;;;5026658;28;20056;-70
2021/11/30 10:08:30;;;;;;;5.65;4.45;;;25.90;65.00;;;;;;5033317;28;20052;-68
2021/11/30 10:11:38;;;;;;;19.38;6.15;;;27.20;58.30;;;;;;5021040;28;20045;-70
2021/11/30 10:14:43;;;;;;;9.75;6.95;;;27.70;58.80;;;;;;5032161;28;20087;-70
2021/11/30 10:17:47;;;;;;;9.93;7.28;;;28.00;56.10;;;;;;5034164;28;20049;-70
2021/11/30 10:21:22;;;;;;;9.52;6.63;;;27.60;55.40;;;;;;5033887;28;20048;-70
2021/11/30 10:24:28;;;;;;;9.43;6.45;;;28.30;57.00;;;;;;5017876;28;20033;-69
2021/11/30 10:27:31;;;;;;;11.85;6.03;;;28.60;50.10;;;;;;5018047;28;20053;-69
2021/11/30 10:30:39;;;;;;;7.07;4.63;;;27.60;49.20;;;;;;5032125;28;20040;-70
2021/11/30 10:33:48;;;;;;;2.55;1.92;;;28.00;48.30;;;;;;5032697;28;20044;-70
2021/11/30 10:37:08;;;;;;;4.55;3.40;;;28.60;45.30;;;;;;5023578;28;20052;-70
2021/11/30 10:40:34;;;;;;;6.38;4.10;;;28.50;48.80;;;;;;5023461;28;20036;-70
2021/11/30 10:44:00;;;;;;;7.72;4.38;;;25.80;45.90;;;;;;5027893;28;20057;-70
2021/11/30 10:47:13;;;;;;;5.22;4.43;;;28.70;50.50;;;;;;5032695;28;20060;-68
2021/11/30 10:50:25;;;;;;;5.07;4.10;;;28.30;45.90;;;;;;5032651;28;20491;-68
2021/11/30 10:53:31;;;;;;;8.23;6.47;;;25.90;48.30;;;;;;5021338;28;20041;-70
2021/11/30 10:56:35;;;;;;;9.07;5.82;;;23.30;51.90;;;;;;5017727;28;20052;-70
2021/11/30 10:59:39;;;;;;;6.55;4.82;;;23.20;50.80;;;;;;5013170;28;20049;-70
2021/11/30 11:02:52;;;;;;;6.18;4.20;;;23.40;55.40;;;;;;5031683;28;20129;-70
2021/11/30 11:09:37;;;;;;;4.90;3.88;;;24.30;55.00;;;;;;5025593;28;20377;-70
2021/11/30 11:12:42;;;;;;;7.97;5.00;;;24.80;55.90;;;;;;5017246;28;20361;-70
2021/11/30 11:15:47;;;;;;;6.28;4.32;;;24.60;53.10;;;;;;5033214;28;20048;-70
2021/11/30 11:18:56;;;;;;;7.88;5.60;;;26.60;52.00;;;;;;5031842;28;20048;-70
2021/11/30 11:22:16;;;;;;;7.80;4.90;;;23.10;53.30;;;;;;5031549;28;20404;-70
2021/11/30 11:25:29;;;;;;;7.50;4.80;;;24.00;56.10;;;;;;5032468;28;20041;-70
2021/11/30 11:28:34;;;;;;;7.97;4.90;;;22.90;56.80;;;;;;5030742;28;20376;-69
2021/11/30 11:31:45;;;;;;;7.47;4.68;;;23.50;56.50;;;;;;5015438;28;20045;-69
2021/11/30 11:34:50;;;;;;;6.57;4.18;;;24.40;55.80;;;;;;5023495;28;20041;-69
2021/11/30 11:37:56;;;;;;;8.75;4.22;;;23.20;57.70;;;;;;5026952;28;20032;-69
2021/11/30 11:41:00;;;;;;;5.70;4.03;;;22.90;58.20;;;;;;5040133;28;20496;-69
2021/11/30 11:44:05;;;;;;;5.80;3.85;;;19.30;62.80;;;;;;5031100;28;20036;-69
2021/11/30 11:47:13;;;;;;;5.60;4.13;;;21.10;61.80;;;;;;5030625;28;20048;-70
2021/11/30 11:50:17;;;;;;;4.75;3.92;;;22.30;59.30;;;;;;5019851;28;20045;-69
2021/11/30 11:53:24;;;;;;;5.65;4.30;;;20.90;61.80;;;;;;5032415;28;20052;-70
2021/11/30 11:56:31;;;;;;;9.88;4.60;;;22.30;59.70;;;;;;5016869;28;20044;-70
2021/11/30 11:59:47;;;;;;;6.15;4.28;;;24.30;58.20;;;;;;5017341;28;20048;-70
2021/11/30 12:03:00;;;;;;;7.93;4.53;;;22.10;58.10;;;;;;5024696;28;20048;-70
2021/11/30 12:06:21;;;;;;;7.95;3.70;;;23.30;58.40;;;;;;5012426;28;20041;-69
2021/11/30 12:09:33;;;;;;;6.43;4.07;;;23.50;57.20;;;;;;5012095;28;20045;-70
2021/11/30 12:12:36;;;;;;;7.43;4.45;;;23.50;56.80;;;;;;5029790;28;20036;-70
2021/11/30 12:16:10;;;;;;;7.40;4.47;;;24.50;57.10;;;;;;5023003;28;20045;-70
2021/11/30 12:19:26;;;;;;;6.57;3.55;;;24.60;54.00;;;;;;5019829;28;20060;-70
2021/11/30 12:22:59;;;;;;;7.50;4.10;;;22.30;56.40;;;;;;5013417;28;20041;-70
2021/11/30 12:26:04;;;;;;;5.72;3.85;;;22.90;56.80;;;;;;5016496;28;20037;-70
2021/11/30 12:29:17;;;;;;;4.88;3.35;;;22.50;56.80;;;;;;5020045;28;20103;-70
2021/11/30 12:32:27;;;;;;;5.00;3.83;;;20.40;56.50;;;;;;5027936;28;20048;-70
2021/11/30 12:35:48;;;;;;;5.10;3.42;;;21.40;57.50;;;;;;5024875;28;20380;-70
2021/11/30 12:39:00;;;;;;;4.07;2.00;;;23.20;56.40;;;;;;5021087;28;20787;-70
2021/11/30 12:42:06;;;;;;;4.35;2.90;;;22.20;50.30;;;;;;5015475;28;20041;-70
2021/11/30 12:45:19;;;;;;;3.30;2.58;;;23.40;53.10;;;;;;5019718;28;20492;-70
2021/11/30 12:48:34;;;;;;;4.85;3.30;;;21.90;53.40;;;;;;5027519;28;20044;-70
2021/11/30 12:51:39;;;;;;;5.43;2.65;;;21.90;53.00;;;;;;5019980;28;20619;-70
2021/11/30 12:54:47;;;;;;;4.18;2.42;;;22.50;51.10;;;;;;5016483;28;20044;-70
2021/11/30 12:57:51;;;;;;;3.92;2.80;;;23.90;51.00;;;;;;5024161;28;20041;-70
2021/11/30 13:01:23;;;;;;;4.65;2.22;;;23.60;48.60;;;;;;5021957;28;20049;-71
2021/11/30 13:04:33;;;;;;;2.90;2.20;;;23.50;48.90;;;;;;5023443;28;20369;-70
2021/11/30 13:07:53;;;;;;;2.85;2.08;;;20.70;50.00;;;;;;5024207;28;20052;-70
2021/11/30 13:10:57;;;;;;;4.28;2.20;;;23.10;48.40;;;;;;5023842;28;20376;-70
2021/11/30 13:14:07;;;;;;;3.13;2.30;;;24.60;49.30;;;;;;5029065;28;20499;-70
2021/11/30 13:17:12;;;;;;;7.43;2.22;;;25.60;47.40;;;;;;5026908;28;20049;-70
2021/11/30 13:20:23;;;;;;;4.03;2.40;;;25.60;46.20;;;;;;5022741;28;20045;-70
2021/11/30 13:23:30;;;;;;;4.53;2.30;;;26.10;47.10;;;;;;5023689;28;20052;-70
2021/11/30 13:26:34;;;;;;;4.82;2.45;;;26.50;46.80;;;;;;5021808;28;20048;-70
2021/11/30 13:29:38;;;;;;;3.88;2.67;;;23.30;48.20;;;;;;5020858;28;20029;-71
2021/11/30 13:32:46;;;;;;;5.03;2.50;;;24.60;47.30;;;;;;5032621;28;20049;-70
2021/11/30 13:35:56;;;;;;;4.22;2.35;;;25.00;47.90;;;;;;5021799;28;20044;-70
2021/11/30 13:39:02;;;;;;;5.47;2.17;;;24.60;47.70;;;;;;5022508;28;20045;-71
2021/11/30 13:42:05;;;;;;;5.47;2.40;;;25.40;46.90;;;;;;5010510;28;20049;-71
2021/11/30 13:45:13;;;;;;;3.10;2.40;;;26.20;46.50;;;;;;5017007;28;20048;-70
2021/11/30 13:48:24;;;;;;;4.00;2.30;;;25.80;44.30;;;;;;5031097;28;20044;-71
2021/11/30 13:51:33;;;;;;;5.75;3.10;;;25.00;45.50;;;;;;5026533;28;20041;-70
2021/11/30 13:54:38;;;;;;;3.75;2.63;;;24.20;44.80;;;;;;5027083;28;20044;-70
2021/11/30 13:58:02;;;;;;;3.13;2.17;;;24.40;48.30;;;;;;5022928;28;20033;-70
2021/11/30 14:04:42;;;;;;;3.88;2.33;;;24.20;47.40;;;;;;5031175;28;20376;-70
2021/11/30 14:07:55;;;;;;;4.45;1.98;;;23.20;44.70;;;;;;5023116;28;20048;-70
2021/11/30 14:10:59;;;;;;;8.18;5.00;;;20.70;46.60;;;;;;5031254;28;20033;-71
2021/11/30 14:14:04;;;;;;;8.60;5.22;;;20.10;48.20;;;;;;5020863;28;20049;-70
2021/11/30 14:17:09;;;;;;;2.55;1.88;;;20.90;47.70;;;;;;5022957;28;20483;-70
2021/11/30 14:20:26;;;;;;;6.05;2.90;;;21.00;47.90;;;;;;5020534;28;20041;-70
2021/11/30 14:23:30;;;;;;;4.97;2.47;;;21.60;47.60;;;;;;5027498;28;20044;-70
2021/11/30 14:26:36;;;;;;;2.67;2.05;;;21.50;45.60;;;;;;5033776;28;20052;-70
2021/11/30 14:29:44;;;;;;;4.32;2.10;;;20.50;45.40;;;;;;5032777;28;20048;-70
2021/11/30 14:33:07;;;;;;;6.07;3.22;;;19.70;49.00;;;;;;5029660;28;20512;-70
2021/11/30 14:36:24;;;;;;;7.57;3.80;;;20.40;47.30;;;;;;5033810;28;20048;-70
2021/11/30 14:39:30;;;;;;;15.35;5.95;;;20.00;47.50;;;;;;5033236;28;20048;-70
2021/11/30 14:43:01;;;;;;;5.22;2.17;;;19.90;48.20;;;;;;5033820;28;20048;-70
2021/11/30 14:46:05;;;;;;;5.78;3.05;;;19.60;48.60;;;;;;5033961;28;20387;-70
2021/11/30 14:49:13;;;;;;;5.60;3.10;;;19.30;49.20;;;;;;5032888;28;20396;-70
2021/11/30 14:52:19;;;;;;;3.20;2.00;;;19.10;48.10;;;;;;5033489;28;20044;-70
2021/11/30 14:55:31;;;;;;;3.50;2.72;;;18.70;48.00;;;;;;5033326;28;20495;-70
2021/11/30 14:58:43;;;;;;;5.45;3.70;;;18.00;49.40;;;;;;5032608;28;20041;-70
2021/11/30 15:01:54;;;;;;;4.85;3.22;;;17.10;53.60;;;;;;5033343;28;20081;-70
2021/11/30 15:04:59;;;;;;;4.38;2.72;;;16.60;54.40;;;;;;5033397;28;20036;-70
2021/11/30 15:08:35;;;;;;;3.67;2.40;;;16.00;54.40;;;;;;5032806;28;20101;-71
2021/11/30 15:11:41;;;;;;;4.20;2.80;;;15.40;54.00;;;;;;5033198;28;20499;-71
2021/11/30 15:14:45;;;;;;;7.45;4.65;;;14.60;56.40;;;;;;5033185;28;20058;-71
2021/11/30 15:17:49;;;;;;;9.80;5.80;;;14.00;59.20;;;;;;5026511;28;20048;-71
2021/11/30 15:20:53;;;;;;;10.98;4.45;;;13.80;59.70;;;;;;5036946;28;20053;-71
2021/11/30 15:23:57;;;;;;;8.50;4.70;;;13.30;60.10;;;;;;5032182;28;20052;-71
2021/11/30 15:27:01;;;;;;;16.80;11.20;;;13.00;60.70;;;;;;5023268;28;20044;-71
2021/11/30 15:30:13;;;;;;;9.55;6.72;;;12.40;61.10;;;;;;5042315;28;20036;-71
2021/11/30 15:33:17;;;;;;;8.63;5.53;;;11.70;64.10;;;;;;5016051;28;20362;-71
2021/11/30 15:36:21;;;;;;;10.65;6.63;;;11.10;64.60;;;;;;5027293;28;20047;-71
2021/11/30 15:39:26;;;;;;;10.98;6.28;;;10.60;65.00;;;;;;5025688;28;20044;-71
2021/11/30 15:42:30;;;;;;;9.52;5.97;;;10.20;66.10;;;;;;5030837;28;20056;-71
2021/11/30 15:45:34;;;;;;;9.07;5.65;;;9.80;67.70;;;;;;5024110;28;20032;-71
2021/11/30 15:48:38;;;;;;;9.68;5.47;;;9.40;68.20;;;;;;5021853;28;20076;-71
2021/11/30 15:51:48;;;;;;;12.80;6.10;;;9.10;68.40;;;;;;5032207;28;20477;-71
2021/11/30 15:54:54;;;;;;;11.27;5.75;;;8.70;70.60;;;;;;5032400;28;20048;-71
2021/11/30 15:58:01;;;;;;;11.07;6.45;;;8.30;70.70;;;;;;5032296;28;20637;-71
2021/11/30 16:01:05;;;;;;;5.30;3.45;;;8.20;71.70;;;;;;5032380;28;20048;-71
2021/11/30 16:04:10;;;;;;;6.47;3.95;;;8.10;67.80;;;;;;5042841;28;20042;-71
2021/11/30 16:07:15;;;;;;;11.02;6.13;;;8.10;67.70;;;;;;5019363;28;20042;-71
2021/11/30 16:10:19;;;;;;;11.88;4.70;;;8.00;68.90;;;;;;5011959;28;20507;-71
2021/11/30 16:13:23;;;;;;;6.95;4.40;;;7.90;70.10;;;;;;5012468;28;20049;-71
2021/11/30 16:16:26;;;;;;;13.00;5.25;;;7.80;72.00;;;;;;5012541;28;20049;-71
2021/11/30 16:19:31;;;;;;;9.63;4.57;;;7.60;70.70;;;;;;5012085;28;20652;-71
2021/11/30 16:22:36;;;;;;;4.90;3.13;;;7.70;69.70;;;;;;5012215;28;20037;-71
2021/11/30 16:25:41;;;;;;;8.77;4.72;;;7.60;69.30;;;;;;5012327;28;20046;-71
2021/11/30 16:28:45;;;;;;;20.90;11.75;;;7.60;72.20;;;;;;5011619;28;20038;-71
2021/11/30 16:31:49;;;;;;;26.35;14.57;;;7.60;73.80;;;;;;5012242;28;20507;-71
2021/11/30 16:34:53;;;;;;;23.25;12.38;;;7.60;73.50;;;;;;5012275;28;20373;-71